sensor_id;sensor_type;location;lat;lon;timestamp;temperature;humidity
4518;DHT22;2271;49.464;11.070;2022-12-18T00:01:41;-4.00;99.90
4518;DHT22;2271;49.464;11.070;2022-12-18T00:04:11;-4.00;99.90
4518;DHT22;2271;49.464;11.070;2022-12-18T00:06:39;-3.90;99.90
4518;DHT22;2271;49.464;11.070;2022-12-18T00:09:04;-3.90;99.90
4518;DHT22;2271;49.464;11.070;2022-12-18T00:11:31;-3.90;99.90
4518;DHT22;2271;49.464;11.070;2022-12-18T00:13:58;-3.90;99.90
4518;DHT22;2271;49.464;11.070;2022-12-18T00:16:25;-3.90;99.90
4518;DHT22;2271;49.464;11.070;2022-12-18T00:18:53;-3.90;99.90
4518;DHT22;2271;49.464;11.070;2022-12-18T00:21:20;-4.00;99.90
4518;DHT22;2271;49.464;11.070;2022-12-18T00:23:47;-4.00;99.90
4518;DHT22;2271;49.464;11.070;2022-12-18T00:26:24;-4.00;99.90
4518;DHT22;2271;49.464;11.070;2022-12-18T00:28:51;-4.00;99.90
4518;DHT22;2271;49.464;11.070;2022-12-18T00:31:19;-4.00;99.90
4518;DHT22;2271;49.464;11.070;2022-12-18T00:33:45;-4.00;99.90
4518;DHT22;2271;49.464;11.070;2022-12-18T00:36:18;-4.00;99.90
4518;DHT22;2271;49.464;11.070;2022-12-18T00:38:45;-4.00;99.90
4518;DHT22;2271;49.464;11.070;2022-12-18T00:41:13;-4.00;99.90
4518;DHT22;2271;49.464;11.070;2022-12-18T00:43:39;-4.00;99.90
4518;DHT22;2271;49.464;11.070;2022-12-18T00:46:05;-4.00;99.90
4518;DHT22;2271;49.464;11.070;2022-12-18T00:48:31;-4.00;99.90
4518;DHT22;2271;49.464;11.070;2022-12-18T00:50:57;-4.10;99.90
4518;DHT22;2271;49.464;11.070;2022-12-18T00:53:22;-4.20;99.90
4518;DHT22;2271;49.464;11.070;2022-12-18T00:55:48;-4.20;99.90
4518;DHT22;2271;49.464;11.070;2022-12-18T00:58:17;-4.30;99.90
4518;DHT22;2271;49.464;11.070;2022-12-18T01:00:42;-4.40;99.90
4518;DHT22;2271;49.464;11.070;2022-12-18T01:03:10;-4.50;99.90
4518;DHT22;2271;49.464;11.070;2022-12-18T01:05:40;-4.70;99.90
4518;DHT22;2271;49.464;11.070;2022-12-18T01:08:06;-4.90;99.90
4518;DHT22;2271;49.464;11.070;2022-12-18T01:10:31;-5.00;99.90
4518;DHT22;2271;49.464;11.070;2022-12-18T01:12:57;-5.00;99.90
4518;DHT22;2271;49.464;11.070;2022-12-18T01:15:23;-4.90;99.90
4518;DHT22;2271;49.464;11.070;2022-12-18T01:17:48;-4.90;99.90
4518;DHT22;2271;49.464;11.070;2022-12-18T01:20:14;-4.90;99.90
4518;DHT22;2271;49.464;11.070;2022-12-18T01:22:40;-4.90;99.90
4518;DHT22;2271;49.464;11.070;2022-12-18T01:25:06;-4.80;99.90
4518;DHT22;2271;49.464;11.070;2022-12-18T01:27:33;-4.80;99.90
4518;DHT22;2271;49.464;11.070;2022-12-18T01:29:59;-4.70;99.90
4518;DHT22;2271;49.464;11.070;2022-12-18T01:32:24;-4.70;99.90
4518;DHT22;2271;49.464;11.070;2022-12-18T01:34:50;-4.70;99.90
4518;DHT22;2271;49.464;11.070;2022-12-18T01:37:15;-4.70;99.90
4518;DHT22;2271;49.464;11.070;2022-12-18T01:39:41;-4.70;99.90
4518;DHT22;2271;49.464;11.070;2022-12-18T01:42:15;-4.60;99.90
4518;DHT22;2271;49.464;11.070;2022-12-18T01:45:00;-4.50;99.90
4518;DHT22;2271;49.464;11.070;2022-12-18T01:50:00;-4.60;99.90
4518;DHT22;2271;49.464;11.070;2022-12-18T01:52:30;-4.60;99.90
4518;DHT22;2271;49.464;11.070;2022-12-18T01:54:57;-4.60;99.90
4518;DHT22;2271;49.464;11.070;2022-12-18T01:57:24;-4.60;99.90
4518;DHT22;2271;49.464;11.070;2022-12-18T01:59:53;-4.60;99.90
4518;DHT22;2271;49.464;11.070;2022-12-18T02:02:21;-4.70;99.90
4518;DHT22;2271;49.464;11.070;2022-12-18T02:04:47;-4.70;99.90
4518;DHT22;2271;49.464;11.070;2022-12-18T02:12:48;-4.80;99.90
4518;DHT22;2271;49.464;11.070;2022-12-18T02:18:01;-5.00;99.90
4518;DHT22;2271;49.464;11.070;2022-12-18T02:20:36;-5.00;99.90
4518;DHT22;2271;49.464;11.070;2022-12-18T02:28:23;-4.90;99.90
4518;DHT22;2271;49.464;11.070;2022-12-18T02:30:53;-4.80;99.90
4518;DHT22;2271;49.464;11.070;2022-12-18T02:33:22;-4.90;99.90
4518;DHT22;2271;49.464;11.070;2022-12-18T02:35:50;-4.90;99.90
4518;DHT22;2271;49.464;11.070;2022-12-18T02:38:17;-5.00;99.90
4518;DHT22;2271;49.464;11.070;2022-12-18T02:40:43;-4.90;99.90
4518;DHT22;2271;49.464;11.070;2022-12-18T02:43:11;-5.00;99.90
4518;DHT22;2271;49.464;11.070;2022-12-18T02:45:49;-5.10;99.90
4518;DHT22;2271;49.464;11.070;2022-12-18T02:48:16;-5.20;99.90
4518;DHT22;2271;49.464;11.070;2022-12-18T02:50:59;-5.30;99.90
4518;DHT22;2271;49.464;11.070;2022-12-18T02:53:36;-5.30;99.90
4518;DHT22;2271;49.464;11.070;2022-12-18T02:56:17;-5.20;99.90
4518;DHT22;2271;49.464;11.070;2022-12-18T03:01:21;-5.10;99.90
4518;DHT22;2271;49.464;11.070;2022-12-18T03:03:59;-5.20;99.90
4518;DHT22;2271;49.464;11.070;2022-12-18T03:06:33;-5.30;99.90
4518;DHT22;2271;49.464;11.070;2022-12-18T03:09:10;-5.40;99.90
4518;DHT22;2271;49.464;11.070;2022-12-18T03:11:41;-5.40;99.90
4518;DHT22;2271;49.464;11.070;2022-12-18T03:14:29;-5.50;99.90
4518;DHT22;2271;49.464;11.070;2022-12-18T03:17:00;-5.70;99.90
4518;DHT22;2271;49.464;11.070;2022-12-18T03:19:28;-5.70;99.90
4518;DHT22;2271;49.464;11.070;2022-12-18T03:21:57;-5.80;99.90
4518;DHT22;2271;49.464;11.070;2022-12-18T03:24:24;-5.70;99.90
4518;DHT22;2271;49.464;11.070;2022-12-18T03:26:54;-5.70;99.90
4518;DHT22;2271;49.464;11.070;2022-12-18T03:29:27;-5.60;99.90
4518;DHT22;2271;49.464;11.070;2022-12-18T03:31:58;-5.50;99.90
4518;DHT22;2271;49.464;11.070;2022-12-18T03:34:30;-5.50;99.90
4518;DHT22;2271;49.464;11.070;2022-12-18T03:36:56;-5.50;99.90
4518;DHT22;2271;49.464;11.070;2022-12-18T03:39:23;-5.40;99.90
4518;DHT22;2271;49.464;11.070;2022-12-18T03:42:08;-5.30;99.90
4518;DHT22;2271;49.464;11.070;2022-12-18T03:44:39;-5.20;99.90
4518;DHT22;2271;49.464;11.070;2022-12-18T03:48:14;-5.10;99.90
4518;DHT22;2271;49.464;11.070;2022-12-18T03:50:26;-4.90;99.90
4518;DHT22;2271;49.464;11.070;2022-12-18T03:53:00;-4.90;99.90
4518;DHT22;2271;49.464;11.070;2022-12-18T03:55:32;-4.90;99.90
4518;DHT22;2271;49.464;11.070;2022-12-18T03:58:00;-4.80;99.90
4518;DHT22;2271;49.464;11.070;2022-12-18T04:00:27;-4.70;99.90
4518;DHT22;2271;49.464;11.070;2022-12-18T04:02:55;-4.80;99.90
4518;DHT22;2271;49.464;11.070;2022-12-18T04:05:23;-4.70;99.90
4518;DHT22;2271;49.464;11.070;2022-12-18T04:07:51;-4.70;99.90
4518;DHT22;2271;49.464;11.070;2022-12-18T04:10:17;-4.60;99.90
4518;DHT22;2271;49.464;11.070;2022-12-18T04:12:43;-4.60;99.90
4518;DHT22;2271;49.464;11.070;2022-12-18T04:15:09;-4.50;99.90
4518;DHT22;2271;49.464;11.070;2022-12-18T04:17:35;-4.50;99.90
4518;DHT22;2271;49.464;11.070;2022-12-18T04:20:01;-4.40;99.90
4518;DHT22;2271;49.464;11.070;2022-12-18T04:22:27;-4.30;99.90
4518;DHT22;2271;49.464;11.070;2022-12-18T04:24:53;-4.20;99.90
4518;DHT22;2271;49.464;11.070;2022-12-18T04:27:18;-4.20;99.90
4518;DHT22;2271;49.464;11.070;2022-12-18T04:29:44;-4.30;99.90
4518;DHT22;2271;49.464;11.070;2022-12-18T04:32:09;-4.20;99.90
4518;DHT22;2271;49.464;11.070;2022-12-18T04:34:35;-4.20;99.90
4518;DHT22;2271;49.464;11.070;2022-12-18T04:37:01;-4.30;99.90
4518;DHT22;2271;49.464;11.070;2022-12-18T04:39:26;-4.30;99.90
4518;DHT22;2271;49.464;11.070;2022-12-18T04:41:52;-4.40;99.90
4518;DHT22;2271;49.464;11.070;2022-12-18T04:44:17;-4.40;99.90
4518;DHT22;2271;49.464;11.070;2022-12-18T04:46:43;-4.50;99.90
4518;DHT22;2271;49.464;11.070;2022-12-18T04:49:09;-4.50;99.90
4518;DHT22;2271;49.464;11.070;2022-12-18T04:51:36;-4.40;99.90
4518;DHT22;2271;49.464;11.070;2022-12-18T04:54:01;-4.30;99.90
4518;DHT22;2271;49.464;11.070;2022-12-18T04:56:27;-4.30;99.90
4518;DHT22;2271;49.464;11.070;2022-12-18T04:58:53;-4.30;99.90
4518;DHT22;2271;49.464;11.070;2022-12-18T05:01:18;-4.30;99.90
4518;DHT22;2271;49.464;11.070;2022-12-18T05:03:44;-4.30;99.90
4518;DHT22;2271;49.464;11.070;2022-12-18T05:06:10;-4.30;99.90
4518;DHT22;2271;49.464;11.070;2022-12-18T05:08:36;-4.20;99.90
4518;DHT22;2271;49.464;11.070;2022-12-18T05:13:29;-4.30;99.90
4518;DHT22;2271;49.464;11.070;2022-12-18T05:15:56;-4.20;99.90
4518;DHT22;2271;49.464;11.070;2022-12-18T05:18:22;-4.10;99.90
4518;DHT22;2271;49.464;11.070;2022-12-18T05:20:52;-4.10;99.90
4518;DHT22;2271;49.464;11.070;2022-12-18T05:23:18;-4.10;99.90
4518;DHT22;2271;49.464;11.070;2022-12-18T05:25:50;-4.10;99.90
4518;DHT22;2271;49.464;11.070;2022-12-18T05:28:16;-4.10;99.90
4518;DHT22;2271;49.464;11.070;2022-12-18T05:30:41;-4.10;99.90
4518;DHT22;2271;49.464;11.070;2022-12-18T05:33:07;-4.00;99.90
4518;DHT22;2271;49.464;11.070;2022-12-18T05:35:32;-4.10;99.90
4518;DHT22;2271;49.464;11.070;2022-12-18T05:37:58;-4.10;99.90
4518;DHT22;2271;49.464;11.070;2022-12-18T05:40:24;-4.00;99.90
4518;DHT22;2271;49.464;11.070;2022-12-18T05:42:49;-4.00;99.90
4518;DHT22;2271;49.464;11.070;2022-12-18T05:45:15;-4.00;99.90
4518;DHT22;2271;49.464;11.070;2022-12-18T05:47:40;-4.10;99.90
4518;DHT22;2271;49.464;11.070;2022-12-18T05:50:07;-4.10;99.90
4518;DHT22;2271;49.464;11.070;2022-12-18T05:52:32;-4.10;99.90
4518;DHT22;2271;49.464;11.070;2022-12-18T05:54:58;-4.00;99.90
4518;DHT22;2271;49.464;11.070;2022-12-18T05:57:24;-4.00;99.90
4518;DHT22;2271;49.464;11.070;2022-12-18T05:59:50;-3.90;99.90
4518;DHT22;2271;49.464;11.070;2022-12-18T06:02:16;-3.90;99.90
4518;DHT22;2271;49.464;11.070;2022-12-18T06:04:41;-3.90;99.90
4518;DHT22;2271;49.464;11.070;2022-12-18T06:07:07;-4.00;99.90
4518;DHT22;2271;49.464;11.070;2022-12-18T06:09:33;-4.00;99.90
4518;DHT22;2271;49.464;11.070;2022-12-18T06:11:58;-4.00;99.90
4518;DHT22;2271;49.464;11.070;2022-12-18T06:14:24;-4.00;99.90
4518;DHT22;2271;49.464;11.070;2022-12-18T06:16:52;-3.90;99.90
4518;DHT22;2271;49.464;11.070;2022-12-18T06:19:18;-3.90;99.90
4518;DHT22;2271;49.464;11.070;2022-12-18T06:21:44;-3.90;99.90
4518;DHT22;2271;49.464;11.070;2022-12-18T06:24:09;-3.90;99.90
4518;DHT22;2271;49.464;11.070;2022-12-18T06:26:37;-4.00;99.90
4518;DHT22;2271;49.464;11.070;2022-12-18T06:29:04;-4.00;99.90
4518;DHT22;2271;49.464;11.070;2022-12-18T06:31:30;-4.10;99.90
4518;DHT22;2271;49.464;11.070;2022-12-18T06:33:55;-4.10;99.90
4518;DHT22;2271;49.464;11.070;2022-12-18T06:36:21;-4.20;99.90
4518;DHT22;2271;49.464;11.070;2022-12-18T06:38:47;-4.10;99.90
4518;DHT22;2271;49.464;11.070;2022-12-18T06:41:15;-4.00;99.90
4518;DHT22;2271;49.464;11.070;2022-12-18T06:43:42;-3.90;99.90
4518;DHT22;2271;49.464;11.070;2022-12-18T06:46:08;-4.00;99.90
4518;DHT22;2271;49.464;11.070;2022-12-18T06:48:34;-4.00;99.90
4518;DHT22;2271;49.464;11.070;2022-12-18T06:51:00;-4.00;99.90
4518;DHT22;2271;49.464;11.070;2022-12-18T06:53:26;-3.90;99.90
4518;DHT22;2271;49.464;11.070;2022-12-18T06:55:51;-3.90;99.90
4518;DHT22;2271;49.464;11.070;2022-12-18T06:58:17;-3.90;99.90
4518;DHT22;2271;49.464;11.070;2022-12-18T07:00:43;-3.90;99.90
4518;DHT22;2271;49.464;11.070;2022-12-18T07:03:09;-3.90;99.90
4518;DHT22;2271;49.464;11.070;2022-12-18T07:05:34;-3.80;99.90
4518;DHT22;2271;49.464;11.070;2022-12-18T07:08:04;-3.80;99.90
4518;DHT22;2271;49.464;11.070;2022-12-18T07:10:30;-3.80;99.90
4518;DHT22;2271;49.464;11.070;2022-12-18T07:12:56;-3.80;99.90
4518;DHT22;2271;49.464;11.070;2022-12-18T07:15:21;-3.80;99.90
4518;DHT22;2271;49.464;11.070;2022-12-18T07:17:47;-3.80;99.90
4518;DHT22;2271;49.464;11.070;2022-12-18T07:20:12;-3.70;99.90
4518;DHT22;2271;49.464;11.070;2022-12-18T07:22:38;-3.80;99.90
4518;DHT22;2271;49.464;11.070;2022-12-18T07:25:04;-3.80;99.90
4518;DHT22;2271;49.464;11.070;2022-12-18T07:27:30;-3.80;99.90
4518;DHT22;2271;49.464;11.070;2022-12-18T07:29:55;-3.80;99.90
4518;DHT22;2271;49.464;11.070;2022-12-18T07:32:21;-3.80;99.90
4518;DHT22;2271;49.464;11.070;2022-12-18T07:34:47;-3.70;99.90
4518;DHT22;2271;49.464;11.070;2022-12-18T07:37:12;-3.70;99.90
4518;DHT22;2271;49.464;11.070;2022-12-18T07:39:38;-3.70;99.90
4518;DHT22;2271;49.464;11.070;2022-12-18T07:42:04;-3.70;99.90
4518;DHT22;2271;49.464;11.070;2022-12-18T07:44:48;-3.70;99.90
4518;DHT22;2271;49.464;11.070;2022-12-18T07:47:13;-3.70;99.90
4518;DHT22;2271;49.464;11.070;2022-12-18T07:49:39;-3.60;99.90
4518;DHT22;2271;49.464;11.070;2022-12-18T07:52:05;-3.50;99.90
4518;DHT22;2271;49.464;11.070;2022-12-18T07:54:30;-3.40;99.90
4518;DHT22;2271;49.464;11.070;2022-12-18T07:56:56;-3.50;99.90
4518;DHT22;2271;49.464;11.070;2022-12-18T07:59:21;-3.50;99.90
4518;DHT22;2271;49.464;11.070;2022-12-18T08:01:47;-3.50;99.90
4518;DHT22;2271;49.464;11.070;2022-12-18T08:04:13;-3.50;99.90
4518;DHT22;2271;49.464;11.070;2022-12-18T08:06:38;-3.40;99.90
4518;DHT22;2271;49.464;11.070;2022-12-18T08:09:04;-3.30;99.90
4518;DHT22;2271;49.464;11.070;2022-12-18T08:11:29;-3.20;99.90
4518;DHT22;2271;49.464;11.070;2022-12-18T08:13:56;-3.30;99.90
4518;DHT22;2271;49.464;11.070;2022-12-18T08:16:23;-3.30;99.90
4518;DHT22;2271;49.464;11.070;2022-12-18T08:18:49;-3.30;99.90
4518;DHT22;2271;49.464;11.070;2022-12-18T08:21:22;-3.20;99.90
4518;DHT22;2271;49.464;11.070;2022-12-18T08:23:49;-3.20;99.90
4518;DHT22;2271;49.464;11.070;2022-12-18T08:26:15;-3.20;99.90
4518;DHT22;2271;49.464;11.070;2022-12-18T08:28:42;-3.20;99.90
4518;DHT22;2271;49.464;11.070;2022-12-18T08:31:08;-3.10;99.90
4518;DHT22;2271;49.464;11.070;2022-12-18T08:33:34;-3.10;99.90
4518;DHT22;2271;49.464;11.070;2022-12-18T08:36:01;-3.00;99.90
4518;DHT22;2271;49.464;11.070;2022-12-18T08:38:27;-2.90;99.90
4518;DHT22;2271;49.464;11.070;2022-12-18T08:43:25;-3.00;99.90
4518;DHT22;2271;49.464;11.070;2022-12-18T08:46:10;-3.00;99.90
4518;DHT22;2271;49.464;11.070;2022-12-18T08:48:35;-3.00;99.90
4518;DHT22;2271;49.464;11.070;2022-12-18T08:51:01;-3.00;99.90
4518;DHT22;2271;49.464;11.070;2022-12-18T08:53:27;-3.00;99.90
4518;DHT22;2271;49.464;11.070;2022-12-18T08:55:53;-2.90;99.90
4518;DHT22;2271;49.464;11.070;2022-12-18T08:58:19;-2.90;99.90
4518;DHT22;2271;49.464;11.070;2022-12-18T09:00:44;-2.90;99.90
4518;DHT22;2271;49.464;11.070;2022-12-18T09:03:17;-2.90;99.90
4518;DHT22;2271;49.464;11.070;2022-12-18T09:05:45;-2.90;99.90
4518;DHT22;2271;49.464;11.070;2022-12-18T09:08:11;-2.90;99.90
4518;DHT22;2271;49.464;11.070;2022-12-18T09:10:44;-2.90;99.90
4518;DHT22;2271;49.464;11.070;2022-12-18T09:13:13;-2.80;99.90
4518;DHT22;2271;49.464;11.070;2022-12-18T09:15:43;-2.80;99.90
4518;DHT22;2271;49.464;11.070;2022-12-18T09:18:11;-2.90;99.90
4518;DHT22;2271;49.464;11.070;2022-12-18T09:20:37;-3.00;99.90
4518;DHT22;2271;49.464;11.070;2022-12-18T09:23:03;-2.90;99.90
4518;DHT22;2271;49.464;11.070;2022-12-18T09:25:30;-2.90;99.90
4518;DHT22;2271;49.464;11.070;2022-12-18T09:28:02;-2.90;99.90
4518;DHT22;2271;49.464;11.070;2022-12-18T09:30:28;-3.00;99.90
4518;DHT22;2271;49.464;11.070;2022-12-18T09:32:54;-3.00;99.90
4518;DHT22;2271;49.464;11.070;2022-12-18T09:35:20;-3.00;99.90
4518;DHT22;2271;49.464;11.070;2022-12-18T09:37:46;-2.90;99.90
4518;DHT22;2271;49.464;11.070;2022-12-18T09:40:18;-2.90;99.90
4518;DHT22;2271;49.464;11.070;2022-12-18T09:42:46;-3.00;99.90
4518;DHT22;2271;49.464;11.070;2022-12-18T09:45:14;-3.00;99.90
4518;DHT22;2271;49.464;11.070;2022-12-18T09:47:43;-3.00;99.90
4518;DHT22;2271;49.464;11.070;2022-12-18T09:50:30;-3.00;99.90
4518;DHT22;2271;49.464;11.070;2022-12-18T09:53:02;-3.00;99.90
4518;DHT22;2271;49.464;11.070;2022-12-18T09:55:38;-2.90;99.90
4518;DHT22;2271;49.464;11.070;2022-12-18T09:58:15;-2.80;99.90
4518;DHT22;2271;49.464;11.070;2022-12-18T10:00:42;-2.80;99.90
4518;DHT22;2271;49.464;11.070;2022-12-18T10:03:13;-2.80;99.90
4518;DHT22;2271;49.464;11.070;2022-12-18T10:10:54;-2.80;99.90
4518;DHT22;2271;49.464;11.070;2022-12-18T10:13:33;-2.80;99.90
4518;DHT22;2271;49.464;11.070;2022-12-18T10:16:14;-2.80;99.90
4518;DHT22;2271;49.464;11.070;2022-12-18T10:24:29;-2.80;99.90
4518;DHT22;2271;49.464;11.070;2022-12-18T10:27:08;-2.90;99.90
4518;DHT22;2271;49.464;11.070;2022-12-18T10:29:35;-2.90;99.90
4518;DHT22;2271;49.464;11.070;2022-12-18T10:32:00;-3.00;99.90
4518;DHT22;2271;49.464;11.070;2022-12-18T10:34:26;-3.00;99.90
4518;DHT22;2271;49.464;11.070;2022-12-18T10:36:51;-3.00;99.90
4518;DHT22;2271;49.464;11.070;2022-12-18T10:39:24;-3.00;99.90
4518;DHT22;2271;49.464;11.070;2022-12-18T10:42:18;-3.00;99.90
4518;DHT22;2271;49.464;11.070;2022-12-18T10:44:44;-2.90;99.90
4518;DHT22;2271;49.464;11.070;2022-12-18T10:47:18;-2.90;99.90
4518;DHT22;2271;49.464;11.070;2022-12-18T10:49:49;-2.80;99.90
4518;DHT22;2271;49.464;11.070;2022-12-18T10:52:21;-2.80;99.90
4518;DHT22;2271;49.464;11.070;2022-12-18T10:54:59;-2.90;99.90
4518;DHT22;2271;49.464;11.070;2022-12-18T10:57:34;-2.80;99.90
4518;DHT22;2271;49.464;11.070;2022-12-18T11:00:27;-2.70;99.90
4518;DHT22;2271;49.464;11.070;2022-12-18T11:02:53;-2.70;99.90
4518;DHT22;2271;49.464;11.070;2022-12-18T11:05:33;-2.70;99.90
4518;DHT22;2271;49.464;11.070;2022-12-18T11:08:00;-2.60;99.90
4518;DHT22;2271;49.464;11.070;2022-12-18T11:10:32;-2.60;99.90
4518;DHT22;2271;49.464;11.070;2022-12-18T11:13:19;-2.50;99.90
4518;DHT22;2271;49.464;11.070;2022-12-18T11:15:46;-2.60;99.90
4518;DHT22;2271;49.464;11.070;2022-12-18T11:18:30;-2.50;99.90
4518;DHT22;2271;49.464;11.070;2022-12-18T11:21:06;-2.50;99.90
4518;DHT22;2271;49.464;11.070;2022-12-18T11:23:33;-2.50;99.90
4518;DHT22;2271;49.464;11.070;2022-12-18T11:26:01;-2.30;99.90
4518;DHT22;2271;49.464;11.070;2022-12-18T11:28:39;-2.30;99.90
4518;DHT22;2271;49.464;11.070;2022-12-18T11:36:29;-2.20;99.90
4518;DHT22;2271;49.464;11.070;2022-12-18T11:38:57;-2.20;99.90
4518;DHT22;2271;49.464;11.070;2022-12-18T11:41:30;-2.30;99.90
4518;DHT22;2271;49.464;11.070;2022-12-18T11:44:26;-2.30;99.90
4518;DHT22;2271;49.464;11.070;2022-12-18T11:47:03;-2.30;99.90
4518;DHT22;2271;49.464;11.070;2022-12-18T11:49:34;-2.30;99.90
4518;DHT22;2271;49.464;11.070;2022-12-18T11:54:43;-2.40;99.90
4518;DHT22;2271;49.464;11.070;2022-12-18T11:57:35;-2.40;99.90
4518;DHT22;2271;49.464;11.070;2022-12-18T12:00:19;-2.30;99.90
4518;DHT22;2271;49.464;11.070;2022-12-18T12:08:45;-2.40;99.90
4518;DHT22;2271;49.464;11.070;2022-12-18T12:14:27;-2.50;99.90
4518;DHT22;2271;49.464;11.070;2022-12-18T12:17:11;-2.40;99.90
4518;DHT22;2271;49.464;11.070;2022-12-18T12:19:54;-2.30;99.90
4518;DHT22;2271;49.464;11.070;2022-12-18T12:22:33;-2.20;99.90
4518;DHT22;2271;49.464;11.070;2022-12-18T12:28:03;-2.10;99.90
4518;DHT22;2271;49.464;11.070;2022-12-18T12:31:00;-2.10;99.90
4518;DHT22;2271;49.464;11.070;2022-12-18T12:36:29;-2.00;99.90
4518;DHT22;2271;49.464;11.070;2022-12-18T12:39:01;-1.90;99.90
4518;DHT22;2271;49.464;11.070;2022-12-18T12:41:32;-1.80;99.90
4518;DHT22;2271;49.464;11.070;2022-12-18T12:44:31;-1.80;99.90
4518;DHT22;2271;49.464;11.070;2022-12-18T12:47:01;-1.80;99.90
4518;DHT22;2271;49.464;11.070;2022-12-18T12:49:31;-1.70;99.90
4518;DHT22;2271;49.464;11.070;2022-12-18T12:52:32;-1.70;99.90
4518;DHT22;2271;49.464;11.070;2022-12-18T12:54:59;-1.60;99.90
4518;DHT22;2271;49.464;11.070;2022-12-18T12:57:34;-1.50;99.90
4518;DHT22;2271;49.464;11.070;2022-12-18T13:02:44;-1.50;99.90
4518;DHT22;2271;49.464;11.070;2022-12-18T13:05:21;-1.40;99.90
4518;DHT22;2271;49.464;11.070;2022-12-18T13:10:30;-1.50;99.90
4518;DHT22;2271;49.464;11.070;2022-12-18T13:13:06;-1.50;99.90
4518;DHT22;2271;49.464;11.070;2022-12-18T13:16:05;-1.60;99.90
4518;DHT22;2271;49.464;11.070;2022-12-18T13:18:32;-1.60;99.90
4518;DHT22;2271;49.464;11.070;2022-12-18T13:31:00;-1.80;99.90
4518;DHT22;2271;49.464;11.070;2022-12-18T13:41:53;-1.70;99.90
4518;DHT22;2271;49.464;11.070;2022-12-18T13:44:28;-1.70;99.90
4518;DHT22;2271;49.464;11.070;2022-12-18T13:46:57;-1.80;99.90
4518;DHT22;2271;49.464;11.070;2022-12-18T13:52:00;-1.70;99.90
4518;DHT22;2271;49.464;11.070;2022-12-18T13:54:40;-1.70;99.90
4518;DHT22;2271;49.464;11.070;2022-12-18T13:57:27;-1.70;99.90
4518;DHT22;2271;49.464;11.070;2022-12-18T13:59:53;-1.70;99.90
4518;DHT22;2271;49.464;11.070;2022-12-18T14:02:23;-1.70;99.90
4518;DHT22;2271;49.464;11.070;2022-12-18T14:04:49;-1.70;99.90
4518;DHT22;2271;49.464;11.070;2022-12-18T14:07:18;-1.80;99.90
4518;DHT22;2271;49.464;11.070;2022-12-18T14:09:47;-1.80;99.90
4518;DHT22;2271;49.464;11.070;2022-12-18T14:12:22;-1.90;99.90
4518;DHT22;2271;49.464;11.070;2022-12-18T14:15:32;-1.90;99.90
4518;DHT22;2271;49.464;11.070;2022-12-18T14:20:34;-1.90;99.90
4518;DHT22;2271;49.464;11.070;2022-12-18T14:23:00;-1.90;99.90
4518;DHT22;2271;49.464;11.070;2022-12-18T14:25:30;-1.80;99.90
4518;DHT22;2271;49.464;11.070;2022-12-18T14:28:14;-1.80;99.90
4518;DHT22;2271;49.464;11.070;2022-12-18T14:30:42;-1.80;99.90
4518;DHT22;2271;49.464;11.070;2022-12-18T14:35:36;-1.80;99.90
4518;DHT22;2271;49.464;11.070;2022-12-18T14:38:22;-1.70;99.90
4518;DHT22;2271;49.464;11.070;2022-12-18T14:41:02;-1.70;99.90
4518;DHT22;2271;49.464;11.070;2022-12-18T14:43:31;-1.70;99.90
4518;DHT22;2271;49.464;11.070;2022-12-18T14:45:57;-1.80;99.90
4518;DHT22;2271;49.464;11.070;2022-12-18T14:48:42;-1.90;99.90
4518;DHT22;2271;49.464;11.070;2022-12-18T14:51:22;-1.80;99.90
4518;DHT22;2271;49.464;11.070;2022-12-18T14:56:46;-1.90;99.90
4518;DHT22;2271;49.464;11.070;2022-12-18T14:59:23;-2.00;99.90
4518;DHT22;2271;49.464;11.070;2022-12-18T15:04:27;-2.00;99.90
4518;DHT22;2271;49.464;11.070;2022-12-18T15:09:39;-2.10;99.90
4518;DHT22;2271;49.464;11.070;2022-12-18T15:12:05;-2.10;99.90
4518;DHT22;2271;49.464;11.070;2022-12-18T15:14:43;-2.10;99.90
4518;DHT22;2271;49.464;11.070;2022-12-18T15:17:20;-2.10;99.90
4518;DHT22;2271;49.464;11.070;2022-12-18T15:19:48;-2.10;99.90
4518;DHT22;2271;49.464;11.070;2022-12-18T15:22:27;-2.10;99.90
4518;DHT22;2271;49.464;11.070;2022-12-18T15:24:54;-2.10;99.90
4518;DHT22;2271;49.464;11.070;2022-12-18T15:27:38;-2.30;99.90
4518;DHT22;2271;49.464;11.070;2022-12-18T15:32:33;-2.30;99.90
4518;DHT22;2271;49.464;11.070;2022-12-18T15:35:23;-2.30;99.90
4518;DHT22;2271;49.464;11.070;2022-12-18T15:37:51;-2.30;99.90
4518;DHT22;2271;49.464;11.070;2022-12-18T15:40:26;-2.40;99.90
4518;DHT22;2271;49.464;11.070;2022-12-18T15:42:53;-2.40;99.90
4518;DHT22;2271;49.464;11.070;2022-12-18T15:45:38;-2.40;99.90
4518;DHT22;2271;49.464;11.070;2022-12-18T15:48:21;-2.40;99.90
4518;DHT22;2271;49.464;11.070;2022-12-18T15:50:49;-2.30;99.90
4518;DHT22;2271;49.464;11.070;2022-12-18T15:53:15;-2.30;99.90
4518;DHT22;2271;49.464;11.070;2022-12-18T15:55:40;-2.40;99.90
4518;DHT22;2271;49.464;11.070;2022-12-18T15:58:24;-2.40;99.90
4518;DHT22;2271;49.464;11.070;2022-12-18T16:00:50;-2.50;99.90
4518;DHT22;2271;49.464;11.070;2022-12-18T16:03:15;-2.50;99.90
4518;DHT22;2271;49.464;11.070;2022-12-18T16:05:41;-2.50;99.90
4518;DHT22;2271;49.464;11.070;2022-12-18T16:08:07;-2.50;99.90
4518;DHT22;2271;49.464;11.070;2022-12-18T16:10:32;-2.50;99.90
4518;DHT22;2271;49.464;11.070;2022-12-18T16:12:58;-2.50;99.90
4518;DHT22;2271;49.464;11.070;2022-12-18T16:15:23;-2.40;99.90
4518;DHT22;2271;49.464;11.070;2022-12-18T16:17:49;-2.40;99.90
4518;DHT22;2271;49.464;11.070;2022-12-18T16:20:17;-2.40;99.90
4518;DHT22;2271;49.464;11.070;2022-12-18T16:22:44;-2.50;99.90
4518;DHT22;2271;49.464;11.070;2022-12-18T16:25:27;-2.60;99.90
4518;DHT22;2271;49.464;11.070;2022-12-18T16:27:54;-2.60;99.90
4518;DHT22;2271;49.464;11.070;2022-12-18T16:30:25;-2.60;99.90
4518;DHT22;2271;49.464;11.070;2022-12-18T16:32:56;-2.70;99.90
4518;DHT22;2271;49.464;11.070;2022-12-18T16:35:24;-2.70;99.90
4518;DHT22;2271;49.464;11.070;2022-12-18T16:37:50;-2.80;99.90
4518;DHT22;2271;49.464;11.070;2022-12-18T16:40:17;-2.80;99.90
4518;DHT22;2271;49.464;11.070;2022-12-18T16:42:44;-2.80;99.90
4518;DHT22;2271;49.464;11.070;2022-12-18T16:45:14;-2.80;99.90
4518;DHT22;2271;49.464;11.070;2022-12-18T16:47:40;-2.80;99.90
4518;DHT22;2271;49.464;11.070;2022-12-18T16:50:07;-2.90;99.90
4518;DHT22;2271;49.464;11.070;2022-12-18T16:52:33;-2.90;99.90
4518;DHT22;2271;49.464;11.070;2022-12-18T16:54:58;-2.90;99.90
4518;DHT22;2271;49.464;11.070;2022-12-18T16:57:24;-3.00;99.90
4518;DHT22;2271;49.464;11.070;2022-12-18T16:59:50;-3.00;99.90
4518;DHT22;2271;49.464;11.070;2022-12-18T17:02:24;-3.00;99.90
4518;DHT22;2271;49.464;11.070;2022-12-18T17:04:53;-2.90;99.90
4518;DHT22;2271;49.464;11.070;2022-12-18T17:07:19;-3.00;99.90
4518;DHT22;2271;49.464;11.070;2022-12-18T17:09:45;-3.00;99.90
4518;DHT22;2271;49.464;11.070;2022-12-18T17:12:10;-3.00;99.90
4518;DHT22;2271;49.464;11.070;2022-12-18T17:14:36;-3.10;99.90
4518;DHT22;2271;49.464;11.070;2022-12-18T17:17:02;-3.10;99.90
4518;DHT22;2271;49.464;11.070;2022-12-18T17:19:28;-3.10;99.90
4518;DHT22;2271;49.464;11.070;2022-12-18T17:21:55;-3.00;99.90
4518;DHT22;2271;49.464;11.070;2022-12-18T17:24:21;-3.00;99.90
4518;DHT22;2271;49.464;11.070;2022-12-18T17:26:47;-3.00;99.90
4518;DHT22;2271;49.464;11.070;2022-12-18T17:29:14;-3.10;99.90
4518;DHT22;2271;49.464;11.070;2022-12-18T17:31:40;-3.10;99.90
4518;DHT22;2271;49.464;11.070;2022-12-18T17:34:07;-3.10;99.90
4518;DHT22;2271;49.464;11.070;2022-12-18T17:36:33;-3.00;99.90
4518;DHT22;2271;49.464;11.070;2022-12-18T17:39:00;-3.10;99.90
4518;DHT22;2271;49.464;11.070;2022-12-18T17:41:27;-3.10;99.90